createdAt,value
2019-05-29T00:00:32.665Z,10.49
2019-05-29T00:05:26.731Z,10.37
2019-05-29T00:10:20.689Z,10.24
2019-05-29T00:15:14.750Z,10.08
2019-05-29T00:20:08.802Z,10.06
2019-05-29T00:25:04.498Z,10.11
2019-05-29T00:29:58.460Z,10.05
2019-05-29T00:34:52.455Z,10.04
2019-05-29T00:39:46.404Z,9.88
2019-05-29T00:44:40.364Z,9.76
2019-05-29T00:49:34.460Z,9.63
2019-05-29T00:54:28.409Z,9.57
2019-05-29T00:59:22.472Z,9.43
2019-05-29T01:04:17.809Z,9.40
2019-05-29T01:09:12.321Z,9.18
2019-05-29T01:14:06.480Z,9.14
2019-05-29T01:19:20.286Z,9.10
2019-05-29T01:24:14.691Z,9.07
2019-05-29T01:29:08.656Z,8.99
2019-05-29T01:34:02.738Z,9.02
2019-05-29T01:38:56.685Z,9.02
2019-05-29T01:43:50.837Z,8.78
2019-05-29T01:48:44.831Z,8.70
2019-05-29T01:53:38.915Z,8.64
2019-05-29T01:58:32.915Z,8.61
2019-05-29T02:03:28.231Z,8.45
2019-05-29T02:08:22.262Z,8.35
2019-05-29T02:13:17.265Z,8.29
2019-05-29T02:18:11.288Z,8.26
2019-05-29T02:23:05.270Z,8.13
2019-05-29T02:27:59.253Z,8.13
2019-05-29T02:32:53.358Z,8.09
2019-05-29T02:37:47.333Z,8.02
2019-05-29T02:42:41.471Z,7.96
2019-05-29T02:47:35.543Z,7.91
2019-05-29T02:52:30.770Z,7.97
2019-05-29T02:57:26.756Z,7.92
2019-05-29T03:02:21.508Z,8.01
2019-05-29T03:07:15.933Z,7.96
2019-05-29T03:12:09.889Z,7.79
2019-05-29T03:17:03.908Z,7.71
2019-05-29T03:21:57.834Z,7.59
2019-05-29T03:26:51.796Z,7.44
2019-05-29T03:31:48.143Z,7.35
2019-05-29T03:36:47.436Z,7.26
2019-05-29T03:41:38.995Z,7.26
2019-05-29T03:46:41.067Z,7.26
2019-05-29T03:51:30.133Z,7.20
2019-05-29T03:56:26.377Z,7.21
2019-05-29T04:01:20.618Z,7.23
2019-05-29T04:06:14.584Z,7.42
2019-05-29T04:11:08.590Z,7.54
2019-05-29T04:16:02.723Z,7.50
2019-05-29T04:20:57.424Z,7.57
2019-05-29T04:25:54.786Z,7.54
2019-05-29T04:30:48.849Z,7.66
2019-05-29T04:35:42.818Z,7.73
2019-05-29T04:40:37.879Z,7.83
2019-05-29T04:45:33.477Z,7.96
2019-05-29T04:50:29.159Z,8.13
2019-05-29T04:55:23.379Z,8.26
2019-05-29T05:00:17.350Z,8.64
2019-05-29T05:05:14.410Z,8.85
2019-05-29T05:10:09.780Z,9.00
2019-05-29T05:15:04.848Z,8.92
2019-05-29T05:19:58.804Z,9.27
2019-05-29T05:24:52.776Z,9.13
2019-05-29T05:29:46.746Z,9.09
2019-05-29T05:34:41.047Z,9.23
2019-05-29T05:39:35.250Z,9.31
2019-05-29T05:44:29.257Z,9.40
2019-05-29T05:49:23.277Z,9.45
2019-05-29T05:54:17.239Z,9.70
2019-05-29T05:59:11.330Z,9.69
2019-05-29T06:04:05.415Z,9.93
2019-05-29T06:08:59.390Z,10.11
2019-05-29T06:13:53.366Z,10.20
2019-05-29T06:18:47.315Z,10.48
2019-05-29T06:23:41.403Z,10.69
2019-05-29T06:28:35.390Z,10.92
2019-05-29T06:33:29.355Z,11.03
2019-05-29T06:38:23.315Z,11.14
2019-05-29T06:43:22.183Z,11.14
2019-05-29T06:48:37.898Z,11.21
2019-05-29T06:53:15.847Z,11.51
2019-05-29T06:58:10.024Z,11.80
2019-05-29T07:03:04.181Z,11.79
2019-05-29T07:07:58.189Z,11.57
2019-05-29T07:12:52.133Z,11.76
2019-05-29T07:17:46.681Z,11.84
2019-05-29T07:22:40.917Z,12.10
2019-05-29T07:27:35.135Z,12.32
2019-05-29T07:32:29.120Z,12.51
2019-05-29T07:37:23.235Z,12.75
2019-05-29T07:42:17.209Z,12.91
2019-05-29T07:47:11.175Z,13.01
2019-05-29T07:52:05.276Z,12.86
2019-05-29T07:56:59.344Z,13.03
2019-05-29T08:01:53.355Z,12.96
2019-05-29T08:06:52.262Z,12.84
2019-05-29T08:11:43.553Z,12.98
2019-05-29T08:16:37.609Z,13.30
2019-05-29T08:21:31.576Z,13.57
2019-05-29T08:26:25.631Z,13.66
2019-05-29T08:31:19.596Z,13.61
2019-05-29T08:36:13.550Z,13.74
2019-05-29T08:41:07.502Z,13.74
2019-05-29T08:46:01.468Z,14.18
2019-05-29T08:50:55.485Z,14.53
2019-05-29T08:55:50.652Z,14.53
2019-05-29T09:00:48.541Z,14.84
2019-05-29T09:05:40.658Z,15.07
2019-05-29T09:10:34.750Z,15.08
2019-05-29T09:15:28.706Z,14.93
2019-05-29T09:20:37.115Z,15.40
2019-05-29T09:25:19.173Z,15.54
2019-05-29T09:30:14.965Z,15.66
2019-05-29T09:35:09.332Z,15.85
2019-05-29T09:40:07.123Z,15.74
2019-05-29T09:45:01.179Z,16.23
2019-05-29T09:49:55.217Z,16.64
2019-05-29T09:54:49.288Z,16.75
2019-05-29T09:59:43.352Z,17.06
2019-05-29T10:04:37.322Z,17.11
2019-05-29T10:09:31.361Z,17.83
2019-05-29T10:14:25.394Z,17.83
2019-05-29T10:19:19.494Z,17.87
2019-05-29T10:24:13.728Z,18.88
2019-05-29T10:29:09.642Z,19.21
2019-05-29T10:34:03.727Z,19.50
2019-05-29T10:38:57.773Z,20.25
2019-05-29T10:43:51.758Z,22.44
2019-05-29T10:48:49.297Z,23.00
2019-05-29T10:53:41.715Z,23.43
2019-05-29T10:58:48.353Z,22.84
2019-05-29T11:03:31.938Z,23.46
2019-05-29T11:08:26.201Z,23.37
2019-05-29T11:13:20.275Z,25.31
2019-05-29T11:18:14.525Z,26.19
2019-05-29T11:23:08.601Z,25.30
2019-05-29T11:28:02.794Z,26.02
2019-05-29T11:32:57.583Z,25.84
2019-05-29T11:37:52.701Z,26.29
2019-05-29T11:42:46.683Z,26.82
2019-05-29T11:47:40.688Z,26.66
2019-05-29T11:52:43.145Z,26.47
2019-05-29T11:57:30.692Z,25.66
2019-05-29T12:02:24.740Z,27.06
2019-05-29T12:07:18.882Z,28.22
2019-05-29T12:12:12.992Z,28.80
2019-05-29T12:17:06.941Z,28.93
2019-05-29T12:22:02.594Z,29.03
2019-05-29T12:26:56.881Z,30.27
2019-05-29T12:31:50.859Z,30.27
2019-05-29T12:36:46.039Z,32.97
2019-05-29T12:41:40.001Z,32.11
2019-05-29T12:46:33.971Z,33.44
2019-05-29T12:51:28.270Z,33.40
2019-05-29T12:56:22.304Z,33.54
2019-05-29T13:01:16.278Z,34.64
2019-05-29T13:06:10.240Z,36.55
2019-05-29T13:11:05.046Z,35.94
2019-05-29T13:15:59.145Z,39.27
2019-05-29T13:20:53.112Z,37.44
2019-05-29T13:25:47.075Z,38.89
2019-05-29T13:30:41.057Z,38.87
2019-05-29T13:35:35.134Z,38.54
2019-05-29T13:40:29.206Z,38.86
2019-05-29T13:45:23.269Z,40.54
2019-05-29T13:50:17.700Z,40.02
2019-05-29T13:55:12.266Z,38.51
2019-05-29T14:00:30.256Z,39.38
2019-05-29T14:05:06.965Z,40.83
2019-05-29T14:10:01.376Z,42.21
2019-05-29T14:14:55.788Z,42.04
2019-05-29T14:19:49.772Z,42.81
2019-05-29T14:24:43.867Z,39.90
2019-05-29T14:29:37.857Z,39.76
2019-05-29T14:34:31.943Z,43.39
2019-05-29T14:39:25.921Z,40.09
2019-05-29T14:44:20.018Z,42.11
2019-05-29T14:49:14.120Z,34.91
2019-05-29T14:54:08.888Z,30.08
2019-05-29T14:59:03.677Z,28.37
2019-05-29T15:03:59.332Z,27.88
2019-05-29T15:08:53.315Z,28.99
2019-05-29T15:13:47.600Z,29.68
2019-05-29T15:18:41.584Z,29.59
2019-05-29T15:23:35.644Z,29.59
2019-05-29T15:28:29.652Z,28.86
2019-05-29T15:33:23.726Z,28.01
2019-05-29T15:38:17.807Z,30.46
2019-05-29T15:43:12.854Z,35.05
2019-05-29T15:48:07.136Z,33.31
2019-05-29T15:53:01.105Z,38.56
2019-05-29T15:57:55.211Z,39.59
2019-05-29T16:02:49.878Z,41.53
2019-05-29T16:07:44.072Z,36.52
2019-05-29T16:12:38.150Z,41.14
2019-05-29T16:17:32.120Z,39.74
2019-05-29T16:22:26.106Z,37.95
2019-05-29T16:27:20.081Z,37.14
2019-05-29T16:32:14.056Z,30.33
2019-05-29T16:37:08.317Z,25.93
2019-05-29T16:42:02.573Z,25.36
2019-05-29T16:46:56.656Z,24.86
2019-05-29T16:51:52.686Z,23.76
2019-05-29T16:56:46.783Z,23.20
2019-05-29T17:01:40.866Z,22.66
2019-05-29T17:06:34.867Z,22.57
2019-05-29T17:11:28.875Z,21.99
2019-05-29T17:16:23.091Z,21.57
2019-05-29T17:21:18.582Z,21.63
2019-05-29T17:26:12.758Z,21.86
2019-05-29T17:31:06.817Z,21.48
2019-05-29T17:36:01.031Z,21.28
2019-05-29T17:40:55.106Z,21.03
2019-05-29T17:45:49.194Z,20.80
2019-05-29T17:50:45.332Z,20.70
2019-05-29T17:55:39.304Z,20.36
2019-05-29T18:00:33.391Z,20.08
2019-05-29T18:05:27.542Z,20.05
2019-05-29T18:10:22.803Z,19.97
2019-05-29T18:15:19.284Z,19.74
2019-05-29T18:20:15.317Z,19.62
2019-05-29T18:25:10.356Z,19.45
2019-05-29T18:30:05.862Z,19.41
2019-05-29T18:34:59.851Z,19.20
2019-05-29T18:39:53.974Z,19.09
2019-05-29T18:44:48.085Z,18.94
2019-05-29T18:49:42.379Z,18.66
2019-05-29T18:54:36.486Z,18.46
2019-05-29T18:59:31.755Z,18.40
2019-05-29T19:04:25.955Z,18.07
2019-05-29T19:09:20.042Z,17.69
2019-05-29T19:14:14.178Z,17.47
2019-05-29T19:19:08.249Z,17.24
2019-05-29T19:24:02.450Z,17.06
2019-05-29T19:28:56.418Z,16.93
2019-05-29T19:33:50.503Z,16.91
2019-05-29T19:38:44.484Z,17.00
2019-05-29T19:43:38.795Z,16.69
2019-05-29T19:48:33.318Z,16.50
2019-05-29T19:53:27.995Z,16.33
2019-05-29T19:58:22.499Z,16.17
2019-05-29T20:03:20.004Z,15.91
2019-05-29T20:08:12.543Z,15.87
2019-05-29T20:13:06.642Z,15.79
2019-05-29T20:18:00.667Z,15.83
2019-05-29T20:22:54.718Z,15.82
2019-05-29T20:27:48.927Z,15.88
2019-05-29T20:32:43.197Z,15.93
2019-05-29T20:37:38.361Z,16.14
2019-05-29T20:42:32.581Z,16.13
2019-05-29T20:47:26.774Z,16.00
2019-05-29T20:52:21.141Z,15.86
2019-05-29T20:57:15.176Z,15.83
2019-05-29T21:02:09.375Z,15.71
2019-05-29T21:07:03.578Z,15.62
2019-05-29T21:12:00.890Z,15.52
2019-05-29T21:16:54.825Z,15.45
2019-05-29T21:21:48.926Z,15.46
2019-05-29T21:26:43.309Z,15.29
2019-05-29T21:31:37.622Z,15.24
2019-05-29T21:36:31.736Z,15.28
2019-05-29T21:41:25.957Z,15.45
2019-05-29T21:46:20.052Z,15.32
2019-05-29T21:51:14.053Z,15.24
2019-05-29T21:56:08.026Z,15.13
2019-05-29T22:01:02.138Z,15.06
2019-05-29T22:05:56.181Z,15.01
2019-05-29T22:10:51.379Z,15.12
2019-05-29T22:15:45.519Z,15.23
2019-05-29T22:20:39.681Z,15.19
2019-05-29T22:25:34.654Z,15.24
2019-05-29T22:30:28.850Z,15.13
2019-05-29T22:35:22.917Z,14.87
2019-05-29T22:40:17.024Z,14.75
2019-05-29T22:45:11.192Z,14.59
2019-05-29T22:50:05.486Z,14.50
2019-05-29T22:54:59.980Z,14.50
2019-05-29T22:59:54.115Z,14.31
2019-05-29T23:04:48.088Z,14.32
2019-05-29T23:09:42.165Z,14.15
2019-05-29T23:14:36.124Z,14.11
2019-05-29T23:19:30.302Z,14.07
2019-05-29T23:24:24.298Z,14.08
2019-05-29T23:29:18.344Z,13.99
2019-05-29T23:34:12.419Z,13.97
2019-05-29T23:39:06.524Z,14.07
2019-05-29T23:44:01.618Z,14.07
2019-05-29T23:48:55.644Z,14.15
2019-05-29T23:53:49.627Z,14.19
2019-05-29T23:58:43.696Z,14.21
